createdAt,value
2023-04-27T05:03:11.156Z,500.00
2023-04-27T05:04:12.239Z,500.00
2023-04-27T05:05:12.093Z,500.00
2023-04-27T05:06:12.081Z,500.00
2023-04-27T05:07:14.063Z,500.00
2023-04-27T05:08:11.094Z,500.00
2023-04-27T05:09:12.188Z,400.00
2023-04-27T05:10:11.088Z,400.00
2023-04-27T05:11:12.084Z,400.00
2023-04-27T05:12:12.086Z,400.00
2023-04-27T05:13:12.107Z,400.00
2023-04-27T05:14:11.039Z,400.00
2023-04-27T05:15:12.125Z,400.00
2023-04-27T05:16:12.095Z,400.00
2023-04-27T05:17:11.029Z,400.00
2023-04-27T05:18:11.036Z,400.00
2023-04-27T05:19:12.433Z,400.00
2023-04-27T05:20:11.016Z,400.00
2023-04-27T05:21:10.996Z,400.00
2023-04-27T05:22:11.008Z,400.00
2023-04-27T05:23:11.995Z,400.00
2023-04-27T05:24:10.989Z,400.00
2023-04-27T05:25:10.986Z,400.00
2023-04-27T05:26:11.965Z,400.00
2023-04-27T05:27:11.972Z,400.00
2023-04-27T05:28:10.965Z,444.00
2023-04-27T05:29:12.199Z,488.00
2023-04-27T05:30:11.943Z,501.00
2023-04-27T05:31:11.007Z,504.00
2023-04-27T05:32:11.043Z,501.00
2023-04-27T05:33:11.992Z,504.00
2023-04-27T05:34:10.921Z,500.00
2023-04-27T05:35:11.940Z,505.00
2023-04-27T05:36:10.910Z,503.00
2023-04-27T05:37:11.898Z,501.00
2023-04-27T05:38:11.895Z,500.00
2023-04-27T05:39:12.079Z,503.00
2023-04-27T05:40:11.898Z,505.00
2023-04-27T05:41:11.870Z,507.00
2023-04-27T05:42:10.850Z,500.00
2023-04-27T05:43:10.877Z,502.00
2023-04-27T05:44:10.860Z,500.00
2023-04-27T05:45:11.862Z,503.00
2023-04-27T05:46:11.874Z,507.00
2023-04-27T05:47:11.838Z,505.00
2023-04-27T05:48:11.818Z,504.00
2023-04-27T05:49:10.830Z,500.00
2023-04-27T05:50:10.813Z,508.00
2023-04-27T05:51:10.831Z,508.00
2023-04-27T05:52:11.805Z,508.00
2023-04-27T05:53:10.794Z,502.00
2023-04-27T05:54:11.807Z,500.00
2023-04-27T05:55:11.790Z,502.00
2023-04-27T05:56:11.800Z,500.00
2023-04-27T05:57:10.772Z,506.00
2023-04-27T05:58:11.827Z,503.00
2023-04-27T05:59:12.116Z,503.00
2023-04-27T06:00:10.846Z,506.00
2023-04-27T06:01:11.874Z,506.00
2023-04-27T06:02:10.977Z,505.00
2023-04-27T06:03:12.149Z,509.00
2023-04-27T06:04:12.179Z,504.00
2023-04-27T06:05:12.077Z,504.00
2023-04-27T06:06:12.180Z,510.00
2023-04-27T06:07:11.175Z,506.00
2023-04-27T06:08:12.262Z,500.00
2023-04-27T06:09:12.472Z,504.00
2023-04-27T06:10:11.296Z,505.00
2023-04-27T06:11:12.327Z,503.00
2023-04-27T06:12:12.376Z,501.00
2023-04-27T06:13:12.438Z,502.00
2023-04-27T06:14:12.486Z,505.00
2023-04-27T06:15:11.518Z,504.00
2023-04-27T06:16:12.587Z,504.00
2023-04-27T06:17:11.610Z,504.00
2023-04-27T06:18:12.672Z,505.00
2023-04-27T06:19:12.975Z,507.00
2023-04-27T06:20:11.757Z,507.00
2023-04-27T06:21:12.777Z,509.00
2023-04-27T06:22:12.875Z,506.00
2023-04-27T06:23:12.935Z,505.00
2023-04-27T06:24:11.974Z,504.00
2023-04-27T06:25:13.002Z,502.00
2023-04-27T06:26:12.055Z,508.00
2023-04-27T06:27:13.102Z,506.00
2023-04-27T06:28:13.158Z,501.00
2023-04-27T06:29:13.468Z,503.00
2023-04-27T06:30:13.254Z,504.00
2023-04-27T06:31:13.347Z,506.00
2023-04-27T06:32:12.359Z,507.00
2023-04-27T06:33:13.415Z,507.00
2023-04-27T06:34:12.444Z,502.00
2023-04-27T06:35:13.462Z,501.00
2023-04-27T06:36:13.485Z,506.00
2023-04-27T06:37:12.515Z,507.00
2023-04-27T06:38:13.643Z,502.00
2023-04-27T06:39:14.119Z,510.00
2023-04-27T06:40:13.719Z,500.00
2023-04-27T06:41:13.736Z,505.00
2023-04-27T06:42:12.776Z,511.00
2023-04-27T06:43:13.844Z,509.00
2023-04-27T06:44:12.873Z,507.00
2023-04-27T06:45:13.898Z,509.00
2023-04-27T06:46:13.967Z,507.00
2023-04-27T06:47:12.986Z,511.00
2023-04-27T06:48:13.049Z,506.00
2023-04-27T06:49:14.399Z,506.00
2023-04-27T06:50:14.137Z,506.00
2023-04-27T06:51:14.187Z,509.00
2023-04-27T06:52:14.234Z,507.00
2023-04-27T06:53:13.294Z,507.00
2023-04-27T06:54:14.550Z,504.00
2023-04-27T06:55:14.380Z,506.00
2023-04-27T06:56:14.402Z,512.00
2023-04-27T06:57:14.453Z,507.00
2023-04-27T06:58:13.451Z,510.00
2023-04-27T06:59:14.719Z,513.00
2023-04-27T07:00:13.561Z,513.00
2023-04-27T07:01:14.628Z,513.00
2023-04-27T07:02:14.692Z,500.00
2023-04-27T07:03:14.817Z,508.00
2023-04-27T07:04:14.927Z,507.00
2023-04-27T07:05:14.770Z,507.00
2023-04-27T07:06:13.814Z,514.00
2023-04-27T07:07:14.856Z,506.00
2023-04-27T07:08:14.908Z,510.00
2023-04-27T07:09:26.433Z,507.00
2023-04-27T07:10:14.939Z,507.00
2023-04-27T07:11:14.893Z,508.00
2023-04-27T07:12:14.889Z,509.00
2023-04-27T07:13:14.884Z,507.00
2023-04-27T07:14:14.853Z,512.00
2023-04-27T07:15:13.866Z,512.00
2023-04-27T07:16:14.929Z,511.00
2023-04-27T07:17:13.844Z,511.00
2023-04-27T07:18:13.914Z,510.00
2023-04-27T07:19:15.096Z,510.00
2023-04-27T07:20:13.835Z,510.00
2023-04-27T07:21:13.865Z,506.00
2023-04-27T07:22:14.817Z,515.00
2023-04-27T07:23:13.808Z,515.00
2023-04-27T07:24:14.803Z,519.00
2023-04-27T07:25:13.792Z,506.00
2023-04-27T07:26:13.798Z,509.00
2023-04-27T07:27:13.774Z,511.00
2023-04-27T07:28:14.778Z,510.00
2023-04-27T07:29:26.556Z,514.00
2023-04-27T07:30:14.773Z,515.00
2023-04-27T07:31:14.776Z,516.00
2023-04-27T07:32:13.939Z,518.00
2023-04-27T07:33:14.754Z,513.00
2023-04-27T07:34:14.767Z,514.00
2023-04-27T07:35:14.771Z,517.00
2023-04-27T07:36:14.725Z,513.00
2023-04-27T07:37:13.730Z,511.00
2023-04-27T07:38:14.711Z,517.00
2023-04-27T07:39:13.922Z,518.00
2023-04-27T07:40:14.708Z,510.00
2023-04-27T07:41:14.714Z,514.00
2023-04-27T07:42:14.800Z,512.00
2023-04-27T07:43:14.666Z,515.00
2023-04-27T07:44:14.664Z,517.00
2023-04-27T07:45:14.675Z,513.00
2023-04-27T07:46:14.783Z,510.00
2023-04-27T07:47:13.657Z,510.00
2023-04-27T07:48:13.704Z,515.00
2023-04-27T07:49:15.489Z,519.00
2023-04-27T07:50:13.628Z,517.00
2023-04-27T07:51:14.622Z,521.00
2023-04-27T07:52:14.636Z,512.00
2023-04-27T07:53:13.600Z,512.00
2023-04-27T07:54:13.596Z,516.00
2023-04-27T07:55:13.667Z,515.00
2023-04-27T07:56:14.720Z,511.00
2023-04-27T07:57:14.792Z,520.00
2023-04-27T07:58:14.884Z,520.00
2023-04-27T07:59:15.296Z,515.00
2023-04-27T08:00:14.984Z,517.00
2023-04-27T08:01:15.032Z,521.00
2023-04-27T08:02:19.320Z,512.00
2023-04-27T08:03:15.322Z,513.00
2023-04-27T08:04:14.302Z,513.00
2023-04-27T08:05:14.520Z,514.00
2023-04-27T08:06:15.326Z,514.00
2023-04-27T08:07:14.250Z,519.00
2023-04-27T08:08:14.092Z,518.00
2023-04-27T08:09:14.321Z,516.00
2023-04-27T08:10:15.044Z,517.00
2023-04-27T08:11:15.031Z,518.00
2023-04-27T08:12:15.057Z,522.00
2023-04-27T08:13:14.035Z,519.00
2023-04-27T08:14:15.045Z,521.00
2023-04-27T08:15:15.019Z,520.00
2023-04-27T08:16:14.049Z,519.00
2023-04-27T08:17:13.992Z,521.00
2023-04-27T08:18:15.073Z,518.00
2023-04-27T08:19:15.460Z,527.00
2023-04-27T08:20:14.174Z,519.00
2023-04-27T08:21:14.220Z,515.00
2023-04-27T08:22:15.277Z,519.00
2023-04-27T08:23:15.327Z,516.00
2023-04-27T08:24:14.381Z,518.00
2023-04-27T08:25:15.403Z,519.00
2023-04-27T08:26:14.459Z,524.00
2023-04-27T08:27:15.532Z,518.00
2023-04-27T08:28:15.586Z,517.00
2023-04-27T08:29:26.274Z,525.00
2023-04-27T08:30:15.673Z,525.00
2023-04-27T08:31:15.652Z,525.00
2023-04-27T08:32:15.611Z,522.00
2023-04-27T08:33:15.767Z,522.00
2023-04-27T08:34:15.607Z,523.00
2023-04-27T08:35:14.607Z,523.00
2023-04-27T08:36:15.669Z,523.00
2023-04-27T08:37:15.583Z,522.00
2023-04-27T08:38:14.584Z,522.00
2023-04-27T08:39:15.820Z,520.00
2023-04-27T08:40:14.673Z,527.00
2023-04-27T08:41:21.350Z,521.00
2023-04-27T08:42:15.738Z,522.00
2023-04-27T08:43:14.727Z,522.00
2023-04-27T08:44:15.085Z,523.00
2023-04-27T08:45:14.707Z,522.00
2023-04-27T08:46:14.763Z,517.00
2023-04-27T08:47:15.693Z,525.00
2023-04-27T08:48:15.738Z,523.00
2023-04-27T08:49:17.061Z,527.00
2023-04-27T08:50:15.684Z,528.00
2023-04-27T08:51:14.692Z,535.00
2023-04-27T08:52:15.664Z,532.00
2023-04-27T08:53:14.658Z,526.00
2023-04-27T08:54:14.649Z,525.00
2023-04-27T08:55:16.627Z,519.00
2023-04-27T08:56:14.635Z,526.00
2023-04-27T08:57:15.646Z,525.00
2023-04-27T08:58:15.642Z,525.00
2023-04-27T08:59:16.489Z,519.00
2023-04-27T09:00:15.623Z,527.00
2023-04-27T09:01:15.698Z,523.00
2023-04-27T09:02:15.934Z,529.00
2023-04-27T09:03:15.942Z,524.00
2023-04-27T09:04:16.102Z,531.00
2023-04-27T09:05:16.108Z,529.00
2023-04-27T09:06:15.172Z,531.00
2023-04-27T09:07:15.072Z,534.00
2023-04-27T09:08:16.136Z,529.00
2023-04-27T09:09:15.494Z,519.00
2023-04-27T09:10:15.239Z,527.00
2023-04-27T09:11:16.305Z,528.00
2023-04-27T09:12:16.373Z,535.00
2023-04-27T09:13:16.427Z,528.00
2023-04-27T09:14:15.501Z,525.00
2023-04-27T09:15:15.559Z,525.00
2023-04-27T09:16:15.640Z,524.00
2023-04-27T09:17:16.670Z,529.00
2023-04-27T09:18:15.896Z,529.00
2023-04-27T09:19:15.897Z,528.00
2023-04-27T09:20:16.851Z,531.00
2023-04-27T09:21:15.919Z,528.00
2023-04-27T09:22:16.980Z,532.00
2023-04-27T09:23:16.030Z,529.00
2023-04-27T09:24:16.089Z,533.00
2023-04-27T09:25:17.157Z,531.00
2023-04-27T09:26:17.220Z,534.00
2023-04-27T09:27:16.283Z,524.00
2023-04-27T09:28:17.360Z,533.00
2023-04-27T09:29:17.443Z,528.00
2023-04-27T09:30:16.478Z,531.00
2023-04-27T09:31:17.552Z,530.00
2023-04-27T09:32:17.120Z,526.00
2023-04-27T09:33:16.649Z,532.00
2023-04-27T09:34:16.736Z,533.00
2023-04-27T09:35:17.787Z,535.00
2023-04-27T09:36:17.834Z,534.00
2023-04-27T09:37:17.891Z,534.00
2023-04-27T09:38:17.952Z,525.00
2023-04-27T09:39:17.985Z,532.00
2023-04-27T09:40:18.030Z,537.00
2023-04-27T09:41:18.096Z,532.00
2023-04-27T09:42:17.142Z,533.00
2023-04-27T09:43:18.209Z,533.00
2023-04-27T09:44:17.268Z,530.00
2023-04-27T09:45:17.331Z,528.00
2023-04-27T09:46:18.408Z,533.00
2023-04-27T09:47:17.451Z,533.00
2023-04-27T09:48:18.543Z,530.00
2023-04-27T09:49:19.092Z,529.00
2023-04-27T09:50:18.685Z,529.00
2023-04-27T09:51:18.712Z,531.00
2023-04-27T09:52:18.761Z,527.00
2023-04-27T09:53:18.829Z,532.00
2023-04-27T09:54:18.901Z,535.00
2023-04-27T09:55:17.958Z,530.00
2023-04-27T09:56:18.024Z,532.00
2023-04-27T09:57:18.078Z,527.00
2023-04-27T09:58:19.139Z,533.00
2023-04-27T09:59:19.203Z,531.00
2023-04-27T10:00:19.353Z,533.00
2023-04-27T10:01:19.328Z,540.00
2023-04-27T10:02:25.338Z,541.00
2023-04-27T10:03:19.488Z,542.00
2023-04-27T10:04:19.602Z,543.00
2023-04-27T10:05:19.406Z,543.00
2023-04-27T10:06:18.383Z,545.00
2023-04-27T10:07:19.347Z,546.00
2023-04-27T10:08:19.344Z,549.00
2023-04-27T10:09:18.361Z,548.00
2023-04-27T10:10:19.363Z,545.00
2023-04-27T10:11:20.363Z,547.00
2023-04-27T10:12:19.334Z,544.00
2023-04-27T10:13:19.317Z,543.00
2023-04-27T10:14:19.299Z,545.00
2023-04-27T10:15:19.299Z,547.00
2023-04-27T10:16:18.303Z,547.00
2023-04-27T10:17:19.281Z,550.00
2023-04-27T10:18:19.306Z,551.00
2023-04-27T10:19:18.352Z,549.00
2023-04-27T10:20:19.427Z,546.00
2023-04-27T10:21:18.474Z,552.00
2023-04-27T10:22:18.562Z,555.00
2023-04-27T10:23:19.593Z,554.00
2023-04-27T10:24:18.657Z,555.00
2023-04-27T10:25:18.733Z,557.00
2023-04-27T10:26:19.793Z,552.00
2023-04-27T10:27:18.848Z,560.00
2023-04-27T10:28:19.888Z,559.00
2023-04-27T10:29:18.963Z,558.00
2023-04-27T10:30:20.036Z,560.00
2023-04-27T10:31:20.134Z,558.00
2023-04-27T10:32:20.173Z,556.00
2023-04-27T10:33:20.217Z,559.00
2023-04-27T10:34:21.486Z,562.00
2023-04-27T10:35:19.350Z,560.00
2023-04-27T10:36:19.392Z,565.00
2023-04-27T10:37:20.472Z,561.00
2023-04-27T10:38:20.587Z,562.00
2023-04-27T10:39:20.573Z,563.00
2023-04-27T10:40:20.661Z,564.00
2023-04-27T10:41:19.698Z,564.00
2023-04-27T10:42:20.744Z,566.00
2023-04-27T10:43:20.814Z,566.00
2023-04-27T10:44:20.869Z,562.00
2023-04-27T10:45:20.927Z,569.00
2023-04-27T10:46:21.080Z,566.00
2023-04-27T10:47:21.057Z,570.00
2023-04-27T10:48:21.128Z,567.00
2023-04-27T10:49:21.184Z,571.00
2023-04-27T10:50:21.272Z,570.00
2023-04-27T10:51:20.309Z,573.00
2023-04-27T10:52:21.384Z,573.00
2023-04-27T10:53:21.426Z,568.00
2023-04-27T10:54:21.491Z,573.00
2023-04-27T10:55:20.541Z,574.00
2023-04-27T10:56:21.603Z,575.00
2023-04-27T10:57:21.639Z,579.00
2023-04-27T10:58:21.695Z,579.00
2023-04-27T10:59:20.744Z,581.00
2023-04-27T11:00:21.808Z,588.00
2023-04-27T11:01:21.965Z,587.00
2023-04-27T11:02:21.968Z,583.00
2023-04-27T11:03:21.131Z,582.00
2023-04-27T11:04:22.063Z,579.00
2023-04-27T11:05:21.058Z,587.00
2023-04-27T11:06:22.105Z,580.00
2023-04-27T11:07:22.154Z,583.00
2023-04-27T11:08:22.234Z,586.00
2023-04-27T11:09:22.260Z,579.00
2023-04-27T11:10:22.333Z,588.00
2023-04-27T11:11:21.380Z,588.00
2023-04-27T11:12:21.439Z,582.00
2023-04-27T11:13:22.515Z,587.00
2023-04-27T11:14:21.542Z,583.00
2023-04-27T11:15:22.609Z,584.00
2023-04-27T11:16:21.688Z,586.00
2023-04-27T11:17:21.727Z,588.00
2023-04-27T11:18:22.752Z,592.00
2023-04-27T11:19:21.784Z,583.00
2023-04-27T11:20:22.851Z,585.00
2023-04-27T11:21:22.916Z,585.00
2023-04-27T11:22:22.995Z,584.00
2023-04-27T11:23:22.018Z,589.00
2023-04-27T11:24:23.078Z,590.00
2023-04-27T11:25:23.138Z,589.00
2023-04-27T11:26:22.218Z,584.00
2023-04-27T11:27:23.223Z,591.00
2023-04-27T11:28:23.291Z,594.00
2023-04-27T11:29:23.337Z,589.00
2023-04-27T11:30:23.415Z,587.00
2023-04-27T11:31:23.532Z,586.00
2023-04-27T11:32:22.529Z,586.00
2023-04-27T11:33:22.554Z,587.00
2023-04-27T11:34:23.595Z,590.00
2023-04-27T11:35:23.675Z,592.00
2023-04-27T11:36:23.792Z,590.00
2023-04-27T11:37:22.789Z,588.00
2023-04-27T11:38:22.993Z,580.00
2023-04-27T11:39:23.126Z,587.00
2023-04-27T11:40:24.616Z,586.00
2023-04-27T11:41:23.965Z,580.00
2023-04-27T11:42:24.000Z,569.00
2023-04-27T11:43:22.979Z,570.00
2023-04-27T11:44:24.008Z,585.00
2023-04-27T11:45:23.026Z,579.00
2023-04-27T11:46:24.110Z,582.00
2023-04-27T11:47:23.203Z,575.00
2023-04-27T11:48:23.117Z,570.00
2023-04-27T11:49:23.116Z,566.00
2023-04-27T11:50:24.151Z,563.00
2023-04-27T11:51:24.181Z,559.00
2023-04-27T11:52:24.176Z,557.00
2023-04-27T11:53:23.186Z,555.00
2023-04-27T11:54:24.241Z,550.00
2023-04-27T11:55:24.228Z,550.00
2023-04-27T11:56:23.256Z,553.00
2023-04-27T11:57:24.250Z,552.00
2023-04-27T11:58:24.131Z,552.00
2023-04-27T11:59:23.295Z,552.00
2023-04-27T12:00:23.314Z,551.00
2023-04-27T12:01:36.689Z,555.00
2023-04-27T12:02:24.454Z,556.00
2023-04-27T12:03:24.569Z,556.00
2023-04-27T12:04:24.423Z,557.00
2023-04-27T12:05:23.417Z,555.00
2023-04-27T12:06:32.668Z,556.00
2023-04-27T12:07:24.280Z,556.00
2023-04-27T12:08:23.266Z,557.00
2023-04-27T12:09:23.279Z,558.00
2023-04-27T12:10:24.266Z,554.00
2023-04-27T12:11:23.266Z,559.00
2023-04-27T12:12:24.259Z,560.00
2023-04-27T12:13:23.242Z,559.00
2023-04-27T12:14:23.254Z,555.00
2023-04-27T12:15:23.230Z,559.00
2023-04-27T12:16:24.262Z,563.00
2023-04-27T12:17:23.276Z,555.00
2023-04-27T12:18:24.222Z,558.00
2023-04-27T12:19:24.212Z,555.00
2023-04-27T12:20:23.206Z,560.00
2023-04-27T12:21:24.190Z,557.00
2023-04-27T12:22:23.180Z,559.00
2023-04-27T12:23:24.171Z,559.00
2023-04-27T12:24:23.164Z,559.00
2023-04-27T12:25:24.182Z,561.00
2023-04-27T12:26:24.168Z,561.00
2023-04-27T12:27:24.164Z,554.00
2023-04-27T12:28:23.145Z,558.00
2023-04-27T12:29:24.145Z,563.00
2023-04-27T12:30:24.179Z,558.00
2023-04-27T12:31:25.342Z,563.00
2023-04-27T12:32:23.133Z,563.00
2023-04-27T12:33:24.166Z,564.00
2023-04-27T12:34:24.118Z,564.00
2023-04-27T12:35:23.116Z,563.00
2023-04-27T12:36:24.118Z,563.00
2023-04-27T12:37:25.409Z,562.00
2023-04-27T12:38:24.097Z,563.00
2023-04-27T12:39:23.097Z,563.00
2023-04-27T12:40:24.078Z,565.00
2023-04-27T12:41:23.063Z,564.00
2023-04-27T12:42:24.080Z,565.00
2023-04-27T12:43:23.060Z,563.00
2023-04-27T12:44:24.058Z,570.00
2023-04-27T12:45:24.037Z,563.00
2023-04-27T12:46:24.097Z,567.00
2023-04-27T12:48:23.053Z,567.00
2023-04-27T12:49:24.020Z,567.00
2023-04-27T12:50:24.015Z,567.00
2023-04-27T12:51:23.004Z,567.00
2023-04-27T12:52:24.009Z,566.00
2023-04-27T12:53:23.989Z,569.00
2023-04-27T12:54:23.975Z,567.00
2023-04-27T12:55:32.972Z,567.00
2023-04-27T12:56:23.993Z,568.00
2023-04-27T12:57:23.975Z,569.00
2023-04-27T12:58:22.964Z,570.00
2023-04-27T12:59:22.959Z,571.00
2023-04-27T13:00:23.944Z,570.00
2023-04-27T13:01:23.983Z,574.00
2023-04-27T13:02:23.070Z,570.00
2023-04-27T13:03:23.127Z,569.00
2023-04-27T13:04:23.621Z,571.00
2023-04-27T13:05:22.918Z,567.00
2023-04-27T13:06:22.927Z,570.00
2023-04-27T13:07:23.913Z,569.00
2023-04-27T13:08:22.890Z,567.00
2023-04-27T13:09:23.902Z,574.00
2023-04-27T13:10:23.894Z,569.00
2023-04-27T13:11:22.910Z,569.00
2023-04-27T13:12:23.881Z,571.00
2023-04-27T13:13:23.873Z,573.00
2023-04-27T13:14:22.851Z,568.00
2023-04-27T13:15:22.865Z,567.00
2023-04-27T13:16:23.890Z,572.00
2023-04-27T13:17:23.849Z,567.00
2023-04-27T13:18:23.866Z,570.00
2023-04-27T13:19:23.840Z,568.00
2023-04-27T13:20:23.818Z,570.00
2023-04-27T13:21:23.824Z,572.00
2023-04-27T13:22:22.807Z,572.00
2023-04-27T13:23:22.801Z,572.00
2023-04-27T13:24:22.798Z,572.00
2023-04-27T13:25:23.808Z,569.00
2023-04-27T13:26:23.787Z,566.00
2023-04-27T13:27:23.777Z,571.00
2023-04-27T13:28:23.784Z,574.00
2023-04-27T13:29:23.820Z,568.00
2023-04-27T13:30:23.859Z,572.00
2023-04-27T13:31:22.949Z,573.00
2023-04-27T13:32:23.955Z,571.00
2023-04-27T13:33:23.799Z,571.00
2023-04-27T13:34:24.050Z,574.00
2023-04-27T13:35:24.076Z,573.00
2023-04-27T13:36:23.094Z,571.00
2023-04-27T13:37:23.152Z,571.00
2023-04-27T13:38:24.230Z,574.00
2023-04-27T13:39:24.237Z,572.00
2023-04-27T13:40:23.267Z,571.00
2023-04-27T13:41:23.331Z,573.00
2023-04-27T13:42:24.368Z,572.00
2023-04-27T13:43:24.434Z,574.00
2023-04-27T13:44:23.444Z,571.00
2023-04-27T13:45:24.478Z,575.00
2023-04-27T13:46:24.555Z,569.00
2023-04-27T13:47:23.600Z,568.00
2023-04-27T13:48:23.600Z,566.00
2023-04-27T13:49:24.628Z,571.00
2023-04-27T13:50:23.686Z,573.00
2023-04-27T13:51:24.720Z,573.00
2023-04-27T13:52:24.746Z,568.00
2023-04-27T13:53:24.792Z,569.00
2023-04-27T13:54:23.829Z,573.00
2023-04-27T13:55:23.865Z,571.00
2023-04-27T13:56:23.903Z,572.00
2023-04-27T13:57:24.947Z,572.00
2023-04-27T13:58:25.754Z,576.00
2023-04-27T13:59:25.026Z,571.00
2023-04-27T14:00:25.075Z,571.00
2023-04-27T14:01:24.176Z,575.00
2023-04-27T14:02:24.221Z,575.00
2023-04-27T14:03:24.342Z,575.00
2023-04-27T14:04:25.407Z,573.00
2023-04-27T14:05:25.270Z,571.00
2023-04-27T14:06:24.358Z,572.00
2023-04-27T14:07:25.362Z,572.00
2023-04-27T14:08:25.411Z,575.00
2023-04-27T14:09:24.453Z,572.00
2023-04-27T14:10:25.506Z,573.00
2023-04-27T14:11:24.564Z,570.00
2023-04-27T14:12:24.587Z,568.00
2023-04-27T14:13:24.642Z,571.00
2023-04-27T14:14:25.672Z,572.00
2023-04-27T14:15:25.726Z,569.00
2023-04-27T14:16:25.800Z,571.00
2023-04-27T14:17:24.806Z,576.00
2023-04-27T14:18:32.189Z,576.00
2023-04-27T14:19:25.849Z,577.00
2023-04-27T14:20:25.835Z,578.00
2023-04-27T14:21:25.832Z,578.00
2023-04-27T14:22:24.852Z,578.00
2023-04-27T14:23:24.826Z,584.00
2023-04-27T14:24:25.815Z,575.00
2023-04-27T14:25:25.818Z,577.00
2023-04-27T14:26:24.790Z,574.00
2023-04-27T14:27:24.806Z,573.00
2023-04-27T14:28:25.792Z,572.00
2023-04-27T14:29:25.784Z,576.00
2023-04-27T14:30:25.771Z,569.00
2023-04-27T14:31:24.841Z,573.00
2023-04-27T14:32:25.794Z,571.00
2023-04-27T14:33:24.756Z,575.00
2023-04-27T14:34:25.754Z,577.00
2023-04-27T14:35:25.735Z,574.00
2023-04-27T14:36:24.745Z,576.00
2023-04-27T14:37:24.734Z,574.00
2023-04-27T14:38:25.753Z,575.00
2023-04-27T14:39:25.707Z,578.00
2023-04-27T14:40:24.709Z,573.00
2023-04-27T14:41:24.725Z,572.00
2023-04-27T14:42:24.687Z,572.00
2023-04-27T14:43:25.696Z,573.00
2023-04-27T14:44:25.698Z,580.00
2023-04-27T14:45:29.039Z,567.00
2023-04-27T14:46:25.806Z,568.00
2023-04-27T14:47:25.922Z,569.00
2023-04-27T14:48:24.654Z,573.00
2023-04-27T14:49:25.658Z,573.00
2023-04-27T14:50:25.630Z,576.00
2023-04-27T14:51:24.640Z,576.00
2023-04-27T14:52:24.623Z,575.00
2023-04-27T14:53:24.624Z,571.00
2023-04-27T14:54:25.633Z,579.00
2023-04-27T14:55:25.617Z,575.00
2023-04-27T14:56:25.602Z,572.00
2023-04-27T14:57:24.602Z,574.00
2023-04-27T14:58:24.609Z,576.00
2023-04-27T14:59:24.582Z,578.00
2023-04-27T15:00:25.584Z,574.00
2023-04-27T15:01:24.602Z,579.00
2023-04-27T15:02:24.700Z,579.00
2023-04-27T15:03:24.815Z,575.00
2023-04-27T15:04:24.657Z,576.00
2023-04-27T15:05:25.536Z,578.00
2023-04-27T15:06:24.528Z,576.00
2023-04-27T15:07:25.533Z,575.00
2023-04-27T15:08:25.539Z,575.00
2023-04-27T15:09:24.502Z,572.00
2023-04-27T15:10:25.541Z,577.00
2023-04-27T15:11:24.509Z,573.00
2023-04-27T15:12:25.500Z,576.00
2023-04-27T15:13:25.550Z,576.00
2023-04-27T15:14:24.582Z,574.00
2023-04-27T15:15:25.620Z,569.00
2023-04-27T15:16:24.748Z,575.00
2023-04-27T15:17:25.705Z,573.00
2023-04-27T15:18:24.721Z,573.00
2023-04-27T15:19:25.791Z,574.00
2023-04-27T15:20:25.797Z,575.00
2023-04-27T15:21:25.828Z,578.00
2023-04-27T15:22:24.880Z,570.00
2023-04-27T15:23:24.896Z,579.00
2023-04-27T15:24:25.928Z,574.00
2023-04-27T15:25:25.947Z,577.00
2023-04-27T15:26:26.074Z,573.00
2023-04-27T15:27:25.008Z,572.00
2023-04-27T15:28:26.022Z,580.00
2023-04-27T15:29:26.053Z,578.00
